createdAt,value
2018-06-16T00:01:49.726Z,12.70
2018-06-16T00:04:17.085Z,13.53
2018-06-16T00:06:44.458Z,14.80
2018-06-16T00:09:11.833Z,12.50
2018-06-16T00:11:39.358Z,14.40
2018-06-16T00:14:06.816Z,14.53
2018-06-16T00:16:34.250Z,15.27
2018-06-16T00:19:01.674Z,13.72
2018-06-16T00:21:29.181Z,14.20
2018-06-16T00:23:56.535Z,13.40
2018-06-16T00:26:24.114Z,13.90
2018-06-16T00:28:51.575Z,16.23
2018-06-16T00:31:18.984Z,13.27
2018-06-16T00:33:46.367Z,13.83
2018-06-16T00:36:13.768Z,15.10
2018-06-16T00:38:41.224Z,14.23
2018-06-16T00:41:08.684Z,14.13
2018-06-16T00:43:36.035Z,14.23
2018-06-16T00:46:03.394Z,15.03
2018-06-16T00:48:30.797Z,13.07
2018-06-16T00:50:58.143Z,15.80
2018-06-16T00:53:25.502Z,15.90
2018-06-16T00:55:52.874Z,14.60
2018-06-16T00:58:22.296Z,15.03
2018-06-16T01:00:49.741Z,14.60
2018-06-16T01:03:17.131Z,15.15
2018-06-16T01:05:44.515Z,13.43
2018-06-16T01:08:11.910Z,14.30
2018-06-16T01:10:39.383Z,16.10
2018-06-16T01:13:06.913Z,13.53
2018-06-16T01:15:34.326Z,14.45
2018-06-16T01:18:01.723Z,15.07
2018-06-16T01:20:29.127Z,16.48
2018-06-16T01:22:56.507Z,15.35
2018-06-16T01:25:24.339Z,14.53
2018-06-16T01:27:51.727Z,16.07
2018-06-16T01:30:19.102Z,16.20
2018-06-16T01:32:46.513Z,15.90
2018-06-16T01:35:14.033Z,15.03
2018-06-16T01:37:41.481Z,14.60
2018-06-16T01:40:08.929Z,15.88
2018-06-16T01:42:36.276Z,14.87
2018-06-16T01:45:03.726Z,15.72
2018-06-16T01:47:31.095Z,15.85
2018-06-16T01:49:58.520Z,14.87
2018-06-16T01:52:32.357Z,15.90
2018-06-16T01:57:33.503Z,14.95
2018-06-16T02:00:01.126Z,14.53
2018-06-16T02:02:28.517Z,14.13
2018-06-16T02:04:56.668Z,14.45
2018-06-16T02:07:24.054Z,14.58
2018-06-16T02:09:51.973Z,14.73
2018-06-16T02:12:19.382Z,15.03
2018-06-16T02:14:47.141Z,15.23
2018-06-16T02:17:14.553Z,14.83
2018-06-16T02:19:41.921Z,15.35
2018-06-16T02:22:09.353Z,13.80
2018-06-16T02:24:37.366Z,14.27
2018-06-16T02:27:11.289Z,14.95
2018-06-16T02:29:38.657Z,14.55
2018-06-16T02:32:06.050Z,14.17
2018-06-16T02:34:33.434Z,14.17
2018-06-16T02:37:00.867Z,15.00
2018-06-16T02:39:28.285Z,14.43
2018-06-16T02:41:55.626Z,14.40
2018-06-16T02:44:23.057Z,13.90
2018-06-16T02:46:50.410Z,14.10
2018-06-16T02:49:17.776Z,13.53
2018-06-16T02:51:45.205Z,14.93
2018-06-16T02:54:12.492Z,13.67
2018-06-16T02:56:39.921Z,12.50
2018-06-16T02:59:07.311Z,13.57
2018-06-16T03:01:34.703Z,14.00
2018-06-16T03:04:02.104Z,14.23
2018-06-16T03:06:29.485Z,13.70
2018-06-16T03:08:56.829Z,13.10
2018-06-16T03:11:24.232Z,13.00
2018-06-16T03:13:51.578Z,14.40
2018-06-16T03:16:18.977Z,14.83
2018-06-16T03:18:46.333Z,14.57
2018-06-16T03:21:13.665Z,14.27
2018-06-16T03:23:41.056Z,14.27
2018-06-16T03:26:08.479Z,14.13
2018-06-16T03:28:35.811Z,14.00
2018-06-16T03:31:03.490Z,14.03
2018-06-16T03:33:31.109Z,12.93
2018-06-16T03:35:58.476Z,14.00
2018-06-16T03:38:25.893Z,14.40
2018-06-16T03:40:53.252Z,13.73
2018-06-16T03:43:20.644Z,12.53
2018-06-16T03:45:48.051Z,13.40
2018-06-16T03:48:15.389Z,13.00
2018-06-16T03:50:42.787Z,14.10
2018-06-16T03:53:10.180Z,12.20
2018-06-16T03:55:37.729Z,13.47
2018-06-16T03:58:05.194Z,14.00
2018-06-16T04:00:32.583Z,13.43
2018-06-16T04:02:59.943Z,12.20
2018-06-16T04:05:27.306Z,13.50
2018-06-16T04:07:54.693Z,13.10
2018-06-16T04:10:22.065Z,14.57
2018-06-16T04:12:50.089Z,12.97
2018-06-16T04:15:17.451Z,13.53
2018-06-16T04:17:44.829Z,15.10
2018-06-16T04:20:12.217Z,13.93
2018-06-16T04:22:39.609Z,15.13
2018-06-16T04:25:06.993Z,12.40
2018-06-16T04:27:34.351Z,13.50
2018-06-16T04:30:01.745Z,13.67
2018-06-16T04:32:29.134Z,13.00
2018-06-16T04:34:56.620Z,12.47
2018-06-16T04:37:23.932Z,13.37
2018-06-16T04:39:51.302Z,12.40
2018-06-16T04:42:18.697Z,12.00
2018-06-16T04:44:46.077Z,11.70
2018-06-16T04:47:13.426Z,11.93
2018-06-16T04:49:40.804Z,12.93
2018-06-16T04:52:08.223Z,12.23
2018-06-16T04:54:35.593Z,12.63
2018-06-16T04:57:03.240Z,12.20
2018-06-16T04:59:30.583Z,12.30
2018-06-16T05:01:57.977Z,11.70
2018-06-16T05:04:25.489Z,11.87
2018-06-16T05:06:52.861Z,11.90
2018-06-16T05:09:20.270Z,11.63
2018-06-16T05:11:47.945Z,11.63
2018-06-16T05:14:15.421Z,12.00
2018-06-16T05:16:42.861Z,11.40
2018-06-16T05:19:10.284Z,12.27
2018-06-16T05:21:37.674Z,11.30
2018-06-16T05:24:05.564Z,11.23
2018-06-16T05:26:32.985Z,11.10
2018-06-16T05:29:00.373Z,12.20
2018-06-16T05:31:27.754Z,10.87
2018-06-16T05:33:55.143Z,10.80
2018-06-16T05:36:22.539Z,10.23
2018-06-16T05:38:50.744Z,12.13
2018-06-16T05:41:18.513Z,11.47
2018-06-16T05:43:46.231Z,11.30
2018-06-16T05:46:14.205Z,11.03
2018-06-16T05:48:41.666Z,9.70
2018-06-16T05:51:09.071Z,11.03
2018-06-16T05:53:36.472Z,11.40
2018-06-16T05:56:04.030Z,10.60
2018-06-16T05:58:31.489Z,13.47
2018-06-16T06:00:58.895Z,12.17
2018-06-16T06:03:26.302Z,12.10
2018-06-16T06:05:53.693Z,11.47
2018-06-16T06:08:21.077Z,11.53
2018-06-16T06:10:48.541Z,9.90
2018-06-16T06:13:16.294Z,12.23
2018-06-16T06:15:43.890Z,10.50
2018-06-16T06:18:11.778Z,11.73
2018-06-16T06:20:39.168Z,10.80
2018-06-16T06:23:06.562Z,10.43
2018-06-16T06:25:34.666Z,10.03
2018-06-16T06:28:02.404Z,10.27
2018-06-16T06:30:29.814Z,10.57
2018-06-16T06:32:57.363Z,10.40
2018-06-16T06:35:25.153Z,10.23
2018-06-16T06:37:52.619Z,9.70
2018-06-16T06:40:19.990Z,11.50
2018-06-16T06:42:47.357Z,9.90
2018-06-16T06:45:14.849Z,11.03
2018-06-16T06:47:42.221Z,10.90
2018-06-16T06:50:09.818Z,11.00
2018-06-16T06:52:37.193Z,11.20
2018-06-16T06:55:04.879Z,10.47
2018-06-16T06:57:32.283Z,11.47
2018-06-16T06:59:59.692Z,9.90
2018-06-16T07:02:27.178Z,11.73
2018-06-16T07:04:54.715Z,11.03
2018-06-16T07:07:24.780Z,10.50
2018-06-16T07:09:53.316Z,11.03
2018-06-16T07:12:21.414Z,12.17
2018-06-16T07:14:49.807Z,12.33
2018-06-16T07:17:18.635Z,11.63
2018-06-16T07:19:47.735Z,11.77
2018-06-16T07:22:18.888Z,11.97
2018-06-16T07:24:51.229Z,12.50
2018-06-16T07:27:22.859Z,11.30
2018-06-16T07:29:50.421Z,12.00
2018-06-16T07:32:20.848Z,11.20
2018-06-16T07:34:51.477Z,12.13
2018-06-16T07:37:22.355Z,11.97
2018-06-16T07:39:54.696Z,11.43
2018-06-16T07:42:24.395Z,12.60
2018-06-16T07:44:53.127Z,11.47
2018-06-16T07:47:20.953Z,10.23
2018-06-16T07:49:49.373Z,10.03
2018-06-16T07:52:17.530Z,11.57
2018-06-16T07:54:45.646Z,10.50
2018-06-16T07:57:14.503Z,11.40
2018-06-16T07:59:43.319Z,11.57
2018-06-16T08:02:10.717Z,10.10
2018-06-16T08:04:38.155Z,11.00
2018-06-16T08:07:06.251Z,11.07
2018-06-16T08:09:35.262Z,12.63
2018-06-16T08:12:03.365Z,11.67
2018-06-16T08:14:31.511Z,10.00
2018-06-16T08:16:59.992Z,10.60
2018-06-16T08:19:29.251Z,11.53
2018-06-16T08:21:57.477Z,12.17
2018-06-16T08:24:26.684Z,10.03
2018-06-16T08:26:56.379Z,11.00
2018-06-16T08:29:24.809Z,10.73
2018-06-16T08:31:55.115Z,11.93
2018-06-16T08:34:23.410Z,10.67
2018-06-16T08:36:50.761Z,10.90
2018-06-16T08:39:19.405Z,10.30
2018-06-16T08:41:51.766Z,10.63
2018-06-16T08:44:19.751Z,10.07
2018-06-16T08:46:47.581Z,9.93
2018-06-16T08:49:16.133Z,9.57
2018-06-16T08:51:44.068Z,10.33
2018-06-16T08:54:12.051Z,10.00
2018-06-16T08:56:40.119Z,10.70
2018-06-16T08:59:09.206Z,10.47
2018-06-16T09:01:38.502Z,10.50
2018-06-16T09:04:06.878Z,10.90
2018-06-16T09:06:35.227Z,10.60
2018-06-16T09:09:02.895Z,9.93
2018-06-16T09:11:32.202Z,9.30
2018-06-16T09:14:02.305Z,9.37
2018-06-16T09:16:29.812Z,9.60
2018-06-16T09:18:58.989Z,9.90
2018-06-16T09:21:27.805Z,10.57
2018-06-16T09:23:57.154Z,9.47
2018-06-16T09:26:24.638Z,8.73
2018-06-16T09:28:53.060Z,9.13
2018-06-16T09:31:22.905Z,8.47
2018-06-16T09:33:51.946Z,8.80
2018-06-16T09:36:20.979Z,9.03
2018-06-16T09:38:48.610Z,8.90
2018-06-16T09:41:17.275Z,8.73
2018-06-16T09:43:46.593Z,9.50
2018-06-16T09:46:15.738Z,8.70
2018-06-16T09:48:43.395Z,8.43
2018-06-16T09:51:12.481Z,8.63
2018-06-16T09:53:42.358Z,8.60
2018-06-16T09:56:12.478Z,8.03
2018-06-16T09:58:40.058Z,8.57
2018-06-16T10:01:07.524Z,8.17
2018-06-16T10:03:36.880Z,8.17
2018-06-16T10:06:06.252Z,9.33
2018-06-16T10:08:35.950Z,7.30
2018-06-16T10:11:04.362Z,6.80
2018-06-16T10:13:33.714Z,7.47
2018-06-16T10:16:02.871Z,6.90
2018-06-16T10:18:32.079Z,6.53
2018-06-16T10:20:59.750Z,7.73
2018-06-16T10:23:30.255Z,7.17
2018-06-16T10:25:57.598Z,6.30
2018-06-16T10:28:25.103Z,6.40
2018-06-16T10:30:52.496Z,6.50
2018-06-16T10:33:19.883Z,6.17
2018-06-16T10:35:47.312Z,6.37
2018-06-16T10:38:14.703Z,6.70
2018-06-16T10:40:42.109Z,6.83
2018-06-16T10:43:09.488Z,7.00
2018-06-16T10:45:36.896Z,6.67
2018-06-16T10:48:04.367Z,6.10
2018-06-16T10:50:31.776Z,5.53
2018-06-16T10:52:59.203Z,5.77
2018-06-16T10:55:26.577Z,4.93
2018-06-16T10:57:54.043Z,6.07
2018-06-16T11:00:21.441Z,6.07
2018-06-16T11:02:48.913Z,6.33
2018-06-16T11:05:16.311Z,6.37
2018-06-16T11:07:43.762Z,6.20
2018-06-16T11:10:11.175Z,6.70
2018-06-16T11:12:38.702Z,6.83
2018-06-16T11:15:06.129Z,5.33
2018-06-16T11:17:33.534Z,5.47
2018-06-16T11:20:01.037Z,5.17
2018-06-16T11:22:28.532Z,6.07
2018-06-16T11:24:55.966Z,5.13
2018-06-16T11:27:23.420Z,4.67
2018-06-16T11:29:50.819Z,5.53
2018-06-16T11:32:18.205Z,5.93
2018-06-16T11:34:45.624Z,6.07
2018-06-16T11:37:13.037Z,5.10
2018-06-16T11:39:40.471Z,5.23
2018-06-16T11:42:07.867Z,5.57
2018-06-16T11:44:35.306Z,6.37
2018-06-16T11:47:02.713Z,6.10
2018-06-16T11:49:30.107Z,5.70
2018-06-16T11:51:57.493Z,5.43
2018-06-16T11:54:25.170Z,5.43
2018-06-16T11:56:52.523Z,6.13
2018-06-16T11:59:19.898Z,4.90
2018-06-16T12:01:47.318Z,4.93
2018-06-16T12:04:14.789Z,5.07
2018-06-16T12:06:42.142Z,5.50
2018-06-16T12:09:11.618Z,5.63
2018-06-16T12:11:39.098Z,5.90
2018-06-16T12:14:06.644Z,5.47
2018-06-16T12:16:34.081Z,5.77
2018-06-16T12:19:01.488Z,5.63
2018-06-16T12:21:28.878Z,5.73
2018-06-16T12:23:56.434Z,6.80
2018-06-16T12:26:23.807Z,5.90
2018-06-16T12:28:51.169Z,5.63
2018-06-16T12:31:18.561Z,5.13
2018-06-16T12:33:45.953Z,5.87
2018-06-16T12:36:13.323Z,4.73
2018-06-16T12:38:40.663Z,5.30
2018-06-16T12:41:08.045Z,5.90
2018-06-16T12:43:35.420Z,6.20
2018-06-16T12:46:02.789Z,5.30
2018-06-16T12:48:30.185Z,6.67
2018-06-16T12:50:57.577Z,5.77
2018-06-16T12:53:24.970Z,6.20
2018-06-16T12:55:52.361Z,5.90
2018-06-16T12:58:19.796Z,6.17
2018-06-16T13:00:47.209Z,6.40
2018-06-16T13:03:14.618Z,6.13
2018-06-16T13:05:42.017Z,6.20
2018-06-16T13:08:09.385Z,5.70
2018-06-16T13:10:36.775Z,6.63
2018-06-16T13:13:04.165Z,6.50
2018-06-16T13:15:31.532Z,7.10
2018-06-16T13:17:59.029Z,5.73
2018-06-16T13:20:26.406Z,6.10
2018-06-16T13:22:54.024Z,6.80
2018-06-16T13:25:21.501Z,6.40
2018-06-16T13:27:48.866Z,6.03
2018-06-16T13:30:16.225Z,6.00
2018-06-16T13:32:43.843Z,5.73
2018-06-16T13:35:11.321Z,6.27
2018-06-16T13:37:38.687Z,6.23
2018-06-16T13:40:06.189Z,6.30
2018-06-16T13:42:33.593Z,6.37
2018-06-16T13:45:01.027Z,5.77
2018-06-16T13:47:28.458Z,5.60
2018-06-16T13:49:55.820Z,5.57
2018-06-16T13:52:23.199Z,5.50
2018-06-16T13:54:50.582Z,6.23
2018-06-16T13:57:17.960Z,5.70
2018-06-16T13:59:45.400Z,5.93
2018-06-16T14:02:12.765Z,5.90
2018-06-16T14:04:40.271Z,6.43
2018-06-16T14:07:07.766Z,6.10
2018-06-16T14:09:35.126Z,5.83
2018-06-16T14:12:02.538Z,6.33
2018-06-16T14:14:29.929Z,6.33
2018-06-16T14:16:57.413Z,5.80
2018-06-16T14:19:24.809Z,5.60
2018-06-16T14:21:52.200Z,5.53
2018-06-16T14:24:19.597Z,6.50
2018-06-16T14:26:47.254Z,5.77
2018-06-16T14:29:14.673Z,6.00
2018-06-16T14:31:42.074Z,5.03
2018-06-16T14:34:09.433Z,5.77
2018-06-16T14:36:36.837Z,6.10
2018-06-16T14:39:05.960Z,5.77
2018-06-16T14:41:33.405Z,5.73
2018-06-16T14:44:00.776Z,6.00
2018-06-16T14:46:28.218Z,5.60
2018-06-16T14:48:55.591Z,5.93
2018-06-16T14:51:22.959Z,5.60
2018-06-16T14:53:50.636Z,5.37
2018-06-16T14:56:18.127Z,6.07
2018-06-16T14:58:45.667Z,6.47
2018-06-16T15:01:14.384Z,6.97
2018-06-16T15:03:41.754Z,7.33
2018-06-16T15:06:09.168Z,9.33
2018-06-16T15:08:36.562Z,7.87
2018-06-16T15:11:04.054Z,7.80
2018-06-16T15:13:31.413Z,6.93
2018-06-16T15:15:58.787Z,7.30
2018-06-16T15:18:26.190Z,7.30
2018-06-16T15:20:53.569Z,7.03
2018-06-16T15:23:20.981Z,6.83
2018-06-16T15:25:48.370Z,9.30
2018-06-16T15:28:15.723Z,7.60
2018-06-16T15:30:43.678Z,8.40
2018-06-16T15:33:11.386Z,7.90
2018-06-16T15:35:38.882Z,7.10
2018-06-16T15:38:06.545Z,8.07
2018-06-16T15:40:33.951Z,7.40
2018-06-16T15:43:01.687Z,6.30
2018-06-16T15:45:29.175Z,8.00
2018-06-16T15:47:56.550Z,6.90
2018-06-16T15:50:24.043Z,7.50
2018-06-16T15:52:52.109Z,8.93
2018-06-16T15:55:20.492Z,6.77
2018-06-16T15:57:48.107Z,7.13
2018-06-16T16:00:15.628Z,6.93
2018-06-16T16:02:43.093Z,8.10
2018-06-16T16:05:10.518Z,7.20
2018-06-16T16:07:38.420Z,9.13
2018-06-16T16:10:09.094Z,7.80
2018-06-16T16:12:40.422Z,8.43
2018-06-16T16:15:11.890Z,6.30
2018-06-16T16:17:42.105Z,7.70
2018-06-16T16:20:12.890Z,6.93
2018-06-16T16:22:43.385Z,7.30
2018-06-16T16:25:14.201Z,11.60
2018-06-16T16:27:45.645Z,6.80
2018-06-16T16:30:14.975Z,7.40
2018-06-16T16:32:46.306Z,6.60
2018-06-16T16:35:17.071Z,6.57
2018-06-16T16:37:47.299Z,8.73
2018-06-16T16:40:17.329Z,7.17
2018-06-16T16:42:52.438Z,8.33
2018-06-16T16:45:29.189Z,8.03
2018-06-16T16:50:45.173Z,8.00
2018-06-16T16:53:16.536Z,8.60
2018-06-16T16:55:49.294Z,8.00
2018-06-16T16:58:20.329Z,6.80
2018-06-16T17:00:51.770Z,7.80
2018-06-16T17:03:21.082Z,7.07
2018-06-16T17:05:51.778Z,7.30
2018-06-16T17:08:22.849Z,6.30
2018-06-16T17:10:52.449Z,7.17
2018-06-16T17:13:23.587Z,8.80
2018-06-16T17:15:55.429Z,6.77
2018-06-16T17:18:25.974Z,7.33
2018-06-16T17:20:56.637Z,11.47
2018-06-16T17:23:27.800Z,7.40
2018-06-16T17:25:58.979Z,6.37
2018-06-16T17:28:29.698Z,7.07
2018-06-16T17:31:01.136Z,7.00
2018-06-16T17:33:29.490Z,6.20
2018-06-16T17:36:00.489Z,8.27
2018-06-16T17:38:31.896Z,6.90
2018-06-16T17:41:01.463Z,6.80
2018-06-16T17:43:35.031Z,7.53
2018-06-16T17:46:05.565Z,6.20
2018-06-16T17:48:36.227Z,8.33
2018-06-16T17:51:05.193Z,15.50
2018-06-16T17:53:34.747Z,26.53
2018-06-16T17:56:04.059Z,16.90
2018-06-16T17:58:33.557Z,10.33
2018-06-16T18:01:04.464Z,14.87
2018-06-16T18:03:34.730Z,12.90
2018-06-16T18:06:05.008Z,8.37
2018-06-16T18:08:35.847Z,7.10
2018-06-16T18:11:05.934Z,6.70
2018-06-16T18:13:36.927Z,7.20
2018-06-16T18:16:07.406Z,7.50
2018-06-16T18:18:37.775Z,7.90
2018-06-16T18:21:08.332Z,9.30
2018-06-16T18:23:39.580Z,6.77
2018-06-16T18:26:09.818Z,7.50
2018-06-16T18:28:40.472Z,7.33
2018-06-16T18:31:12.415Z,7.03
2018-06-16T18:33:43.268Z,8.00
2018-06-16T18:36:14.588Z,8.47
2018-06-16T18:38:47.302Z,7.33
2018-06-16T18:41:19.154Z,7.80
2018-06-16T18:43:51.959Z,7.50
2018-06-16T18:46:23.362Z,9.33
2018-06-16T18:48:53.899Z,10.60
2018-06-16T18:51:24.063Z,7.30
2018-06-16T18:53:57.023Z,7.30
2018-06-16T18:56:26.958Z,7.50
2018-06-16T18:58:57.816Z,7.93
2018-06-16T19:01:29.321Z,7.10
2018-06-16T19:04:00.780Z,10.60
2018-06-16T19:06:31.800Z,7.40
2018-06-16T19:09:02.017Z,8.80
2018-06-16T19:11:33.449Z,8.73
2018-06-16T19:14:04.581Z,7.60
2018-06-16T19:16:34.898Z,7.67
2018-06-16T19:19:07.524Z,8.60
2018-06-16T19:21:39.205Z,7.73
2018-06-16T19:24:09.911Z,7.63
2018-06-16T19:26:41.253Z,10.10
2018-06-16T19:29:12.444Z,10.00
2018-06-16T19:31:42.734Z,10.43
2018-06-16T19:34:11.152Z,10.73
2018-06-16T19:36:44.428Z,9.67
2018-06-16T19:39:14.584Z,9.40
2018-06-16T19:41:43.124Z,9.93
2018-06-16T19:44:13.706Z,10.70
2018-06-16T19:46:47.022Z,9.57
2018-06-16T19:49:17.168Z,10.13
2018-06-16T19:51:47.856Z,9.40
2018-06-16T19:54:18.000Z,9.73
2018-06-16T19:56:46.324Z,9.83
2018-06-16T19:59:17.171Z,10.80
2018-06-16T20:01:49.320Z,11.90
2018-06-16T20:04:19.784Z,10.80
2018-06-16T20:06:50.918Z,12.17
2018-06-16T20:09:23.508Z,10.73
2018-06-16T20:11:54.285Z,10.80
2018-06-16T20:14:25.848Z,10.33
2018-06-16T20:16:59.121Z,10.13
2018-06-16T20:19:32.034Z,11.47
2018-06-16T20:22:05.673Z,10.90
2018-06-16T20:24:36.385Z,11.90
2018-06-16T20:27:07.337Z,11.30
2018-06-16T20:29:38.122Z,11.13
2018-06-16T20:32:09.426Z,10.87
2018-06-16T20:34:40.303Z,11.17
2018-06-16T20:37:11.062Z,10.70
2018-06-16T20:39:40.683Z,12.17
2018-06-16T20:42:11.401Z,12.00
2018-06-16T20:44:43.827Z,13.70
2018-06-16T20:47:15.608Z,10.80
2018-06-16T20:49:46.696Z,10.70
2018-06-16T20:52:18.271Z,10.47
2018-06-16T20:54:45.802Z,10.03
2018-06-16T20:57:16.623Z,9.63
2018-06-16T20:59:46.902Z,10.37
2018-06-16T21:02:17.719Z,10.60
2018-06-16T21:04:47.789Z,11.63
2018-06-16T21:07:19.246Z,10.27
2018-06-16T21:09:52.383Z,10.97
2018-06-16T21:12:23.251Z,13.23
2018-06-16T21:14:53.297Z,11.63
2018-06-16T21:17:25.146Z,12.33
2018-06-16T21:19:56.128Z,17.47
2018-06-16T21:22:23.774Z,13.83
2018-06-16T21:24:51.094Z,12.93
2018-06-16T21:27:18.419Z,14.90
2018-06-16T21:29:45.730Z,14.80
2018-06-16T21:32:13.210Z,15.37
2018-06-16T21:34:40.535Z,16.30
2018-06-16T21:37:07.901Z,16.03
2018-06-16T21:39:35.218Z,15.20
2018-06-16T21:42:02.733Z,16.27
2018-06-16T21:44:30.102Z,14.13
2018-06-16T21:46:57.451Z,16.07
2018-06-16T21:49:24.774Z,14.00
2018-06-16T21:51:52.092Z,11.70
2018-06-16T21:54:19.571Z,10.93
2018-06-16T21:56:46.964Z,14.97
2018-06-16T21:59:14.273Z,10.93
2018-06-16T22:01:41.636Z,12.73
2018-06-16T22:04:09.011Z,11.23
2018-06-16T22:06:36.318Z,10.13
2018-06-16T22:09:05.658Z,11.00
2018-06-16T22:11:32.958Z,10.90
2018-06-16T22:14:00.285Z,11.10
2018-06-16T22:16:27.644Z,12.20
2018-06-16T22:18:55.059Z,14.37
2018-06-16T22:21:22.698Z,14.73
2018-06-16T22:23:50.069Z,14.97
2018-06-16T22:26:17.382Z,14.13
2018-06-16T22:28:44.726Z,14.37
2018-06-16T22:31:12.053Z,13.20
2018-06-16T22:33:39.422Z,14.37
2018-06-16T22:36:06.765Z,14.57
2018-06-16T22:38:34.138Z,19.13
2018-06-16T22:41:01.456Z,14.17
2018-06-16T22:43:28.790Z,20.47
2018-06-16T22:45:56.252Z,14.47
2018-06-16T22:48:23.598Z,15.33
2018-06-16T22:50:50.924Z,16.30
2018-06-16T22:53:18.307Z,15.80
2018-06-16T22:55:45.715Z,15.30
2018-06-16T22:58:13.002Z,16.10
2018-06-16T23:00:40.495Z,16.83
2018-06-16T23:03:07.946Z,15.17
2018-06-16T23:05:35.271Z,16.93
2018-06-16T23:08:02.582Z,14.93
2018-06-16T23:10:29.907Z,16.07
2018-06-16T23:12:57.223Z,19.90
2018-06-16T23:15:24.564Z,17.83
2018-06-16T23:17:51.890Z,18.27
2018-06-16T23:20:19.222Z,21.17
2018-06-16T23:22:46.615Z,23.60
2018-06-16T23:25:13.962Z,19.90
2018-06-16T23:27:41.308Z,19.40
2018-06-16T23:30:08.710Z,20.40
2018-06-16T23:32:36.009Z,21.07
2018-06-16T23:35:03.419Z,23.92
2018-06-16T23:37:30.742Z,20.50
2018-06-16T23:39:58.062Z,22.27
2018-06-16T23:42:25.366Z,21.65
2018-06-16T23:44:52.708Z,21.37
2018-06-16T23:47:20.029Z,21.97
2018-06-16T23:49:47.340Z,22.10
2018-06-16T23:52:14.647Z,23.60
2018-06-16T23:54:42.014Z,21.07
2018-06-16T23:57:09.413Z,22.47
2018-06-16T23:59:37.664Z,19.97
